createdAt,value
2019-01-29T00:01:16.567Z,64.60
2019-01-29T00:03:56.541Z,64.70
2019-01-29T00:06:44.208Z,64.40
2019-01-29T00:09:25.023Z,64.30
2019-01-29T00:12:05.785Z,63.60
2019-01-29T00:14:53.224Z,63.80
2019-01-29T00:17:35.402Z,63.20
2019-01-29T00:20:24.645Z,63.60
2019-01-29T00:23:05.286Z,64.70
2019-01-29T00:25:52.684Z,65.30
2019-01-29T00:28:33.823Z,65.90
2019-01-29T00:31:23.021Z,66.20
2019-01-29T00:33:50.870Z,66.20
2019-01-29T00:36:39.141Z,66.70
2019-01-29T00:39:20.143Z,66.90
2019-01-29T00:42:00.680Z,66.90
2019-01-29T00:44:41.434Z,67.10
2019-01-29T00:47:22.311Z,67.50
2019-01-29T00:50:30.992Z,67.50
2019-01-29T00:53:11.311Z,68.00
2019-01-29T00:55:58.750Z,68.00
2019-01-29T00:58:39.581Z,67.40
2019-01-29T01:01:20.792Z,67.30
2019-01-29T01:03:48.662Z,67.50
2019-01-29T01:06:36.310Z,68.40
2019-01-29T01:09:17.879Z,68.70
2019-01-29T01:12:05.250Z,69.90
2019-01-29T01:14:45.946Z,69.80
2019-01-29T01:17:33.675Z,69.10
2019-01-29T01:20:14.753Z,67.90
2019-01-29T01:22:58.572Z,68.40
2019-01-29T01:25:46.019Z,68.10
2019-01-29T01:28:26.201Z,67.80
2019-01-29T01:31:13.552Z,67.50
2019-01-29T01:33:54.175Z,67.10
2019-01-29T01:36:41.550Z,66.70
2019-01-29T01:39:23.091Z,65.70
2019-01-29T01:42:10.501Z,66.40
2019-01-29T01:44:52.282Z,66.40
2019-01-29T01:47:39.667Z,66.90
2019-01-29T01:50:20.522Z,67.20
2019-01-29T01:53:07.933Z,67.30
2019-01-29T01:55:46.457Z,68.10
2019-01-29T01:58:26.987Z,68.40
2019-01-29T02:01:08.815Z,68.90
2019-01-29T02:03:56.193Z,69.00
2019-01-29T02:06:37.106Z,69.00
2019-01-29T02:09:24.590Z,70.30
2019-01-29T02:12:05.092Z,72.60
2019-01-29T02:14:52.494Z,73.30
2019-01-29T02:17:32.976Z,75.40
2019-01-29T02:20:20.392Z,75.90
2019-01-29T02:23:07.909Z,76.60
2019-01-29T02:25:50.386Z,76.90
2019-01-29T02:28:31.222Z,76.90
2019-01-29T02:31:19.576Z,76.10
2019-01-29T02:33:47.435Z,76.30
2019-01-29T02:36:34.826Z,76.00
2019-01-29T02:39:09.044Z,76.00
2019-01-29T02:41:57.442Z,75.90
2019-01-29T02:44:25.359Z,75.70
2019-01-29T02:47:12.760Z,76.10
2019-01-29T02:49:53.696Z,76.40
2019-01-29T02:52:21.597Z,76.10
2019-01-29T02:55:03.063Z,76.80
2019-01-29T02:57:50.382Z,76.80
2019-01-29T03:00:30.862Z,76.90
2019-01-29T03:03:10.910Z,76.70
2019-01-29T03:05:51.148Z,77.30
2019-01-29T03:08:31.241Z,77.80
2019-01-29T03:11:18.835Z,78.60
2019-01-29T03:13:46.728Z,79.00
2019-01-29T03:16:34.112Z,79.60
2019-01-29T03:19:14.504Z,79.40
2019-01-29T03:22:01.940Z,78.80
2019-01-29T03:24:42.413Z,78.80
2019-01-29T03:27:30.112Z,77.90
2019-01-29T03:29:58.014Z,77.40
2019-01-29T03:32:45.493Z,76.70
2019-01-29T03:35:25.800Z,77.60
2019-01-29T03:38:14.132Z,77.50
2019-01-29T03:40:54.877Z,77.10
2019-01-29T03:43:42.563Z,78.00
2019-01-29T03:46:22.771Z,77.60
2019-01-29T03:49:10.172Z,76.70
2019-01-29T03:51:50.198Z,76.10
2019-01-29T03:54:37.632Z,75.80
2019-01-29T03:57:18.444Z,75.30
2019-01-29T04:00:00.286Z,75.30
2019-01-29T04:02:28.091Z,75.30
2019-01-29T04:05:15.492Z,75.50
2019-01-29T04:07:56.497Z,75.70
2019-01-29T04:10:24.397Z,75.50
2019-01-29T04:12:52.286Z,75.50
2019-01-29T04:15:20.419Z,75.20
2019-01-29T04:18:00.674Z,74.70
2019-01-29T04:20:48.007Z,75.40
2019-01-29T04:23:28.527Z,74.80
2019-01-29T04:25:56.554Z,75.60
2019-01-29T04:28:38.609Z,75.10
2019-01-29T04:31:06.522Z,75.20
2019-01-29T04:33:48.492Z,74.80
2019-01-29T04:36:36.144Z,75.20
2019-01-29T04:39:18.430Z,75.70
2019-01-29T04:42:06.013Z,75.70
2019-01-29T04:44:46.981Z,75.20
2019-01-29T04:47:34.369Z,75.60
2019-01-29T04:50:16.001Z,75.20
2019-01-29T04:53:03.393Z,75.10
2019-01-29T04:55:43.886Z,75.60
2019-01-29T04:58:31.291Z,76.10
2019-01-29T05:01:10.002Z,75.60
2019-01-29T05:03:37.877Z,77.00
2019-01-29T05:06:05.836Z,78.50
2019-01-29T05:08:33.995Z,80.70
2019-01-29T05:11:01.906Z,80.70
2019-01-29T05:13:49.333Z,79.10
2019-01-29T05:16:29.996Z,79.70
2019-01-29T05:19:17.318Z,78.70
2019-01-29T05:21:58.245Z,78.20
2019-01-29T05:24:45.666Z,77.40
2019-01-29T05:27:26.031Z,76.40
2019-01-29T05:30:07.638Z,75.80
2019-01-29T05:32:35.635Z,75.10
2019-01-29T05:35:04.694Z,74.20
2019-01-29T05:37:32.726Z,73.60
2019-01-29T05:40:00.744Z,73.30
2019-01-29T05:42:28.637Z,72.80
2019-01-29T05:44:56.592Z,72.70
2019-01-29T05:47:38.025Z,72.20
2019-01-29T05:50:06.625Z,71.80
2019-01-29T05:52:48.173Z,71.80
2019-01-29T05:55:35.545Z,70.60
2019-01-29T05:58:16.432Z,71.20
2019-01-29T06:00:44.323Z,70.10
2019-01-29T06:03:24.489Z,70.40
2019-01-29T06:06:11.817Z,69.80
2019-01-29T06:08:50.525Z,70.10
2019-01-29T06:11:18.444Z,70.00
2019-01-29T06:13:59.687Z,70.30
2019-01-29T06:16:27.641Z,70.00
2019-01-29T06:19:08.671Z,70.20
2019-01-29T06:21:36.580Z,71.20
2019-01-29T06:24:05.385Z,72.40
2019-01-29T06:26:46.252Z,71.50
2019-01-29T06:29:33.762Z,71.90
2019-01-29T06:32:14.380Z,70.60
2019-01-29T06:35:01.752Z,71.50
2019-01-29T06:37:42.210Z,71.00
2019-01-29T06:40:29.730Z,73.70
2019-01-29T06:43:10.206Z,76.30
2019-01-29T06:45:57.626Z,76.40
2019-01-29T06:48:25.572Z,75.40
2019-01-29T06:50:53.462Z,76.90
2019-01-29T06:53:21.536Z,76.70
2019-01-29T06:56:08.957Z,76.40
2019-01-29T06:58:49.108Z,75.90
2019-01-29T07:01:29.146Z,75.50
2019-01-29T07:04:16.597Z,76.10
2019-01-29T07:06:57.526Z,77.00
2019-01-29T07:09:45.407Z,77.60
2019-01-29T07:12:25.953Z,78.30
2019-01-29T07:15:35.424Z,79.00
2019-01-29T07:18:36.157Z,79.10
2019-01-29T07:21:23.640Z,79.70
2019-01-29T07:23:51.512Z,80.10
2019-01-29T07:26:38.890Z,80.50
2019-01-29T07:29:19.646Z,80.80
2019-01-29T07:32:08.387Z,81.50
2019-01-29T07:34:49.348Z,82.40
2019-01-29T07:37:36.788Z,82.80
2019-01-29T07:40:15.569Z,82.70
2019-01-29T07:43:06.649Z,82.90
2019-01-29T07:45:47.090Z,82.40
2019-01-29T07:48:27.095Z,82.90
2019-01-29T07:51:14.473Z,82.40
2019-01-29T07:53:55.309Z,82.30
2019-01-29T07:56:42.757Z,82.60
2019-01-29T07:59:32.490Z,82.30
2019-01-29T08:02:12.416Z,81.80
2019-01-29T08:04:53.107Z,82.40
2019-01-29T08:07:21.010Z,82.50
2019-01-29T08:10:02.540Z,82.40
2019-01-29T08:12:49.915Z,81.50
2019-01-29T08:15:30.191Z,80.90
2019-01-29T08:18:17.754Z,79.40
2019-01-29T08:20:45.708Z,79.60
2019-01-29T08:23:33.065Z,78.80
2019-01-29T08:26:13.604Z,77.10
2019-01-29T08:29:01.014Z,76.70
2019-01-29T08:31:41.326Z,76.80
2019-01-29T08:34:28.750Z,76.20
2019-01-29T08:37:09.479Z,75.50
2019-01-29T08:39:37.364Z,75.00
2019-01-29T08:42:18.441Z,73.90
2019-01-29T08:44:59.398Z,74.30
2019-01-29T08:47:39.540Z,74.60
2019-01-29T08:53:48.728Z,75.70
2019-01-29T08:56:29.306Z,75.10
2019-01-29T08:58:57.238Z,76.00
2019-01-29T09:01:37.295Z,75.30
2019-01-29T09:04:24.724Z,75.30
2019-01-29T09:06:52.583Z,75.50
2019-01-29T09:09:20.550Z,75.60
2019-01-29T09:12:01.567Z,75.70
2019-01-29T09:14:29.496Z,75.80
2019-01-29T09:17:11.332Z,76.10
2019-01-29T09:19:39.265Z,75.20
2019-01-29T09:22:19.362Z,74.80
2019-01-29T09:24:47.267Z,74.70
2019-01-29T09:27:15.330Z,72.60
2019-01-29T09:29:43.212Z,72.70
2019-01-29T09:32:30.596Z,71.60
2019-01-29T09:35:12.548Z,71.70
2019-01-29T09:38:00.094Z,72.40
2019-01-29T09:40:40.467Z,72.70
2019-01-29T09:43:21.184Z,72.60
2019-01-29T09:46:08.638Z,72.40
2019-01-29T09:48:48.737Z,71.30
2019-01-29T09:51:36.105Z,71.50
2019-01-29T09:54:16.816Z,70.30
2019-01-29T09:57:04.420Z,70.50
2019-01-29T09:59:44.986Z,69.90
2019-01-29T10:02:32.403Z,70.20
2019-01-29T10:05:13.613Z,69.20
2019-01-29T10:07:41.599Z,70.40
2019-01-29T10:10:10.509Z,70.70
2019-01-29T10:12:38.445Z,70.40
2019-01-29T10:15:11.240Z,70.50
2019-01-29T10:17:58.632Z,70.00
2019-01-29T10:20:27.105Z,69.20
2019-01-29T10:23:14.578Z,70.00
2019-01-29T10:25:54.638Z,70.50
2019-01-29T10:28:42.031Z,70.30
2019-01-29T10:31:24.359Z,70.70
2019-01-29T10:34:12.031Z,70.80
2019-01-29T10:36:52.895Z,71.30
2019-01-29T10:39:40.301Z,70.90
2019-01-29T10:42:21.035Z,70.90
2019-01-29T10:45:05.255Z,70.50
2019-01-29T10:47:45.317Z,70.20
2019-01-29T10:50:27.550Z,69.00
2019-01-29T10:53:14.932Z,69.50
2019-01-29T10:55:55.687Z,69.60
2019-01-29T10:58:43.119Z,69.20
2019-01-29T11:01:24.065Z,69.80
2019-01-29T11:04:11.656Z,70.60
2019-01-29T11:06:52.315Z,70.20
2019-01-29T11:10:01.491Z,71.10
2019-01-29T11:12:41.769Z,70.90
2019-01-29T11:15:32.190Z,70.90
2019-01-29T11:18:13.446Z,70.70
2019-01-29T11:21:00.976Z,70.40
2019-01-29T11:23:28.981Z,69.60
2019-01-29T11:26:16.691Z,69.90
2019-01-29T11:28:44.586Z,68.40
2019-01-29T11:31:31.980Z,69.60
2019-01-29T11:34:12.124Z,69.60
2019-01-29T11:36:59.468Z,68.80
2019-01-29T11:39:39.538Z,69.40
2019-01-29T11:42:26.914Z,68.30
2019-01-29T11:45:08.860Z,67.90
2019-01-29T11:47:56.235Z,67.50
2019-01-29T11:50:36.581Z,67.50
2019-01-29T11:53:24.000Z,68.10
2019-01-29T11:56:05.044Z,67.40
2019-01-29T11:58:32.975Z,67.10
2019-01-29T12:03:59.433Z,65.80
2019-01-29T12:06:40.277Z,65.30
2019-01-29T12:09:21.258Z,65.00
2019-01-29T12:12:08.872Z,65.10
2019-01-29T12:14:49.456Z,66.50
2019-01-29T12:17:37.045Z,65.00
2019-01-29T12:20:17.510Z,64.60
2019-01-29T12:22:45.578Z,62.60
2019-01-29T12:25:26.113Z,63.80
2019-01-29T12:27:54.052Z,60.00
2019-01-29T12:30:22.722Z,61.60
2019-01-29T12:32:50.955Z,61.00
2019-01-29T12:35:32.278Z,61.10
2019-01-29T12:38:19.660Z,61.00
2019-01-29T12:41:00.417Z,60.90
2019-01-29T12:43:41.428Z,61.40
2019-01-29T12:46:21.779Z,60.30
2019-01-29T12:49:09.136Z,61.50
2019-01-29T12:52:09.461Z,61.00
2019-01-29T12:54:56.817Z,60.00
2019-01-29T12:57:37.659Z,60.90
2019-01-29T13:03:05.365Z,60.30
2019-01-29T13:05:33.288Z,60.10
2019-01-29T13:08:14.947Z,60.90
2019-01-29T13:10:43.781Z,61.20
2019-01-29T13:13:12.370Z,60.70
2019-01-29T13:15:59.988Z,60.60
2019-01-29T13:18:40.623Z,59.80
2019-01-29T13:21:28.032Z,59.20
2019-01-29T13:23:55.971Z,58.30
2019-01-29T13:26:43.380Z,57.80
2019-01-29T13:29:11.402Z,58.90
2019-01-29T13:31:52.036Z,58.40
2019-01-29T13:34:19.964Z,58.90
2019-01-29T13:36:49.794Z,58.30
2019-01-29T13:42:05.645Z,55.90
2019-01-29T13:44:46.974Z,55.90
2019-01-29T13:47:14.904Z,54.30
2019-01-29T13:49:58.145Z,54.80
2019-01-29T13:52:26.133Z,55.30
2019-01-29T13:54:54.094Z,54.20
2019-01-29T13:57:41.603Z,53.70
2019-01-29T14:00:17.209Z,53.40
2019-01-29T14:03:07.150Z,53.00
2019-01-29T14:05:35.137Z,53.10
2019-01-29T14:08:03.871Z,52.10
2019-01-29T14:10:31.952Z,53.10
2019-01-29T14:13:19.425Z,54.40
2019-01-29T14:15:52.952Z,55.00
2019-01-29T14:18:40.640Z,54.90
2019-01-29T14:21:20.694Z,54.70
2019-01-29T14:24:08.483Z,56.20
2019-01-29T14:26:48.582Z,55.20
2019-01-29T14:29:36.043Z,54.70
2019-01-29T14:32:04.139Z,54.40
2019-01-29T14:34:32.260Z,55.10
2019-01-29T14:37:12.536Z,55.90
2019-01-29T14:40:19.829Z,56.90
2019-01-29T14:43:00.464Z,55.40
2019-01-29T14:45:41.618Z,55.50
2019-01-29T14:48:09.662Z,56.60
2019-01-29T14:50:37.663Z,56.80
2019-01-29T14:53:25.129Z,57.10
2019-01-29T14:56:05.929Z,57.60
2019-01-29T14:58:53.473Z,55.50
2019-01-29T15:01:34.131Z,55.90
2019-01-29T15:04:12.661Z,56.60
2019-01-29T15:07:00.084Z,56.80
2019-01-29T15:09:40.394Z,55.00
2019-01-29T15:12:27.832Z,55.70
2019-01-29T15:14:55.888Z,55.80
2019-01-29T15:20:26.177Z,55.30
2019-01-29T15:22:54.820Z,55.70
2019-01-29T15:25:23.135Z,55.70
2019-01-29T15:28:03.579Z,55.80
2019-01-29T15:30:50.984Z,55.60
2019-01-29T15:33:31.993Z,55.60
2019-01-29T15:36:19.380Z,54.90
2019-01-29T15:39:02.136Z,55.70
2019-01-29T15:41:43.793Z,54.60
2019-01-29T15:44:31.172Z,54.90
2019-01-29T15:46:59.130Z,55.60
2019-01-29T15:49:46.560Z,54.70
2019-01-29T15:52:26.727Z,54.40
2019-01-29T15:55:14.389Z,54.20
2019-01-29T15:58:04.388Z,55.60
2019-01-29T16:00:32.819Z,55.70
2019-01-29T16:03:01.047Z,55.60
2019-01-29T16:05:29.672Z,56.40
2019-01-29T16:07:57.742Z,57.30
2019-01-29T16:10:29.313Z,57.50
2019-01-29T16:12:57.245Z,56.30
2019-01-29T16:15:25.446Z,54.60
2019-01-29T16:18:07.308Z,54.40
2019-01-29T16:20:55.178Z,53.90
2019-01-29T16:23:38.232Z,54.40
2019-01-29T16:26:25.643Z,54.60
2019-01-29T16:29:06.445Z,55.20
2019-01-29T16:31:54.035Z,55.30
2019-01-29T16:37:15.042Z,53.40
2019-01-29T16:40:04.046Z,52.70
2019-01-29T16:42:32.351Z,53.60
2019-01-29T16:45:00.343Z,52.10
2019-01-29T16:47:28.312Z,52.50
2019-01-29T16:49:56.639Z,51.70
2019-01-29T16:52:24.692Z,52.60
2019-01-29T16:55:17.681Z,51.60
2019-01-29T16:57:49.904Z,51.30
2019-01-29T17:00:37.511Z,51.20
2019-01-29T17:03:17.868Z,50.70
2019-01-29T17:06:05.491Z,50.30
2019-01-29T17:08:46.067Z,49.60
2019-01-29T17:11:33.456Z,49.80
2019-01-29T17:14:14.426Z,50.80
2019-01-29T17:16:56.006Z,50.40
2019-01-29T17:19:36.415Z,49.20
2019-01-29T17:22:23.943Z,49.10
2019-01-29T17:24:51.924Z,47.50
2019-01-29T17:27:20.721Z,47.80
2019-01-29T17:30:29.882Z,47.20
2019-01-29T17:33:11.094Z,47.10
2019-01-29T17:35:58.477Z,47.20
2019-01-29T17:38:44.375Z,47.10
2019-01-29T17:41:28.136Z,46.90
2019-01-29T17:43:56.202Z,46.90
2019-01-29T17:46:43.614Z,47.60
2019-01-29T17:49:24.197Z,47.10
2019-01-29T17:52:11.646Z,47.30
2019-01-29T17:54:52.619Z,48.00
2019-01-29T17:57:50.340Z,47.80
2019-01-29T18:00:45.779Z,47.90
2019-01-29T18:03:33.508Z,47.70
2019-01-29T18:06:14.089Z,48.40
2019-01-29T18:09:01.645Z,48.30
2019-01-29T18:11:43.720Z,47.70
2019-01-29T18:14:25.301Z,48.20
2019-01-29T18:17:12.805Z,49.00
2019-01-29T18:19:41.060Z,49.50
2019-01-29T18:22:10.674Z,49.80
2019-01-29T18:24:39.033Z,50.00
2019-01-29T18:27:07.175Z,50.40
2019-01-29T18:29:49.422Z,50.80
2019-01-29T18:32:17.515Z,50.90
2019-01-29T18:34:45.621Z,52.70
2019-01-29T18:37:33.261Z,52.10
2019-01-29T18:40:14.609Z,52.20
2019-01-29T18:42:55.538Z,52.60
2019-01-29T18:45:43.187Z,53.00
2019-01-29T18:48:23.863Z,53.40
2019-01-29T18:51:11.400Z,53.80
2019-01-29T18:53:52.102Z,54.40
2019-01-29T18:56:39.706Z,54.60
2019-01-29T18:59:19.858Z,55.20
2019-01-29T19:02:07.754Z,56.20
2019-01-29T19:04:48.950Z,58.40
2019-01-29T19:07:36.529Z,60.50
2019-01-29T19:10:19.337Z,61.80
2019-01-29T19:13:06.846Z,62.10
2019-01-29T19:15:47.669Z,62.80
2019-01-29T19:18:35.220Z,63.40
2019-01-29T19:21:03.396Z,63.10
2019-01-29T19:23:31.545Z,63.80
2019-01-29T19:26:12.686Z,63.80
2019-01-29T19:29:00.366Z,64.40
2019-01-29T19:31:40.839Z,64.70
2019-01-29T19:34:28.465Z,65.50
2019-01-29T19:37:09.159Z,66.30
2019-01-29T19:39:59.947Z,67.10
2019-01-29T19:42:28.623Z,65.60
2019-01-29T19:45:11.427Z,65.90
2019-01-29T19:47:59.661Z,66.00
2019-01-29T19:50:29.191Z,66.40
2019-01-29T19:53:16.863Z,66.50
2019-01-29T19:55:57.282Z,66.40
2019-01-29T19:58:44.851Z,67.40
2019-01-29T20:04:11.284Z,67.60
2019-01-29T20:06:39.344Z,67.70
2019-01-29T20:09:14.683Z,68.20
2019-01-29T20:11:42.952Z,68.30
2019-01-29T20:14:11.069Z,67.50
2019-01-29T20:16:39.204Z,67.90
2019-01-29T20:19:20.797Z,68.50
2019-01-29T20:22:08.428Z,68.00
2019-01-29T20:24:48.826Z,68.40
2019-01-29T20:27:36.684Z,68.80
2019-01-29T20:30:12.784Z,69.60
2019-01-29T20:32:40.927Z,69.60
2019-01-29T20:35:09.185Z,69.60
2019-01-29T20:37:37.316Z,70.30
2019-01-29T20:40:09.627Z,70.30
2019-01-29T20:42:37.872Z,70.50
2019-01-29T20:45:07.728Z,70.20
2019-01-29T20:47:55.311Z,71.20
2019-01-29T20:50:36.654Z,71.20
2019-01-29T20:53:05.136Z,71.50
2019-01-29T20:55:45.927Z,71.50
2019-01-29T20:58:33.805Z,71.40
2019-01-29T21:01:14.335Z,72.30
2019-01-29T21:03:42.594Z,71.30
2019-01-29T21:06:23.181Z,71.30
2019-01-29T21:09:11.256Z,71.80
2019-01-29T21:11:52.917Z,71.60
2019-01-29T21:14:40.635Z,72.10
2019-01-29T21:19:49.831Z,71.30
2019-01-29T21:22:32.024Z,70.90
2019-01-29T21:25:19.588Z,71.40
2019-01-29T21:28:01.588Z,71.60
2019-01-29T21:30:50.724Z,70.40
2019-01-29T21:33:18.985Z,71.60
2019-01-29T21:35:47.078Z,71.00
2019-01-29T21:38:31.351Z,71.50
2019-01-29T21:41:19.244Z,70.70
2019-01-29T21:43:59.893Z,71.30
2019-01-29T21:46:28.043Z,71.60
2019-01-29T21:48:56.282Z,71.20
2019-01-29T21:51:24.299Z,70.90
2019-01-29T21:53:52.521Z,71.30
2019-01-29T21:56:40.149Z,71.00
2019-01-29T21:59:20.924Z,71.20
2019-01-29T22:02:08.526Z,72.30
2019-01-29T22:04:36.658Z,71.90
2019-01-29T22:07:24.109Z,72.10
2019-01-29T22:10:05.199Z,72.20
2019-01-29T22:12:53.126Z,72.20
2019-01-29T22:15:21.552Z,71.60
2019-01-29T22:18:11.602Z,72.00
2019-01-29T22:20:52.918Z,72.30
2019-01-29T22:23:40.877Z,72.80
2019-01-29T22:26:21.698Z,72.20
2019-01-29T22:29:09.335Z,73.20
2019-01-29T22:31:50.125Z,73.40
2019-01-29T22:34:37.851Z,73.70
2019-01-29T22:37:18.970Z,74.40
2019-01-29T22:40:09.525Z,74.60
2019-01-29T22:42:54.165Z,73.10
2019-01-29T22:45:22.130Z,72.80
2019-01-29T22:47:50.180Z,73.00
2019-01-29T22:50:39.827Z,72.50
2019-01-29T22:53:22.765Z,72.80
2019-01-29T22:56:03.569Z,71.20
2019-01-29T22:58:31.525Z,70.60
2019-01-29T23:01:25.101Z,70.00
2019-01-29T23:04:33.875Z,70.00
2019-01-29T23:07:34.623Z,69.10
2019-01-29T23:13:46.729Z,68.70
2019-01-29T23:16:14.706Z,69.90
2019-01-29T23:18:42.744Z,70.10
2019-01-29T23:21:23.746Z,68.90
2019-01-29T23:23:52.998Z,68.00
2019-01-29T23:26:34.425Z,69.10
2019-01-29T23:29:21.855Z,67.90
2019-01-29T23:31:49.866Z,68.00
2019-01-29T23:34:31.405Z,67.50
2019-01-29T23:37:12.875Z,67.00
2019-01-29T23:40:01.462Z,66.40
2019-01-29T23:42:41.874Z,66.20
2019-01-29T23:45:10.682Z,66.00
2019-01-29T23:47:59.437Z,64.80
2019-01-29T23:50:46.804Z,64.90
2019-01-29T23:53:28.453Z,63.80
2019-01-29T23:56:15.850Z,65.00
2019-01-29T23:58:55.953Z,64.80
